createdAt,value
2023-05-22T00:02:17.014Z,8.43
2023-05-22T00:04:46.733Z,7.60
2023-05-22T00:07:16.712Z,8.05
2023-05-22T00:09:44.693Z,7.95
2023-05-22T00:12:12.767Z,7.50
2023-05-22T00:14:40.875Z,7.45
2023-05-22T00:17:10.390Z,7.22
2023-05-22T00:19:38.671Z,7.15
2023-05-22T00:22:08.984Z,8.98
2023-05-22T00:24:39.167Z,8.43
2023-05-22T00:27:07.270Z,7.63
2023-05-22T00:29:35.777Z,7.55
2023-05-22T00:32:03.823Z,7.30
2023-05-22T00:34:33.343Z,7.22
2023-05-22T00:37:01.625Z,6.70
2023-05-22T00:39:31.535Z,7.90
2023-05-22T00:41:59.596Z,7.18
2023-05-22T00:44:29.949Z,7.55
2023-05-22T00:46:58.343Z,10.65
2023-05-22T00:49:26.660Z,7.00
2023-05-22T00:51:56.408Z,6.80
2023-05-22T00:54:24.942Z,6.80
2023-05-22T00:56:55.217Z,6.40
2023-05-22T00:59:23.504Z,6.55
2023-05-22T01:01:52.075Z,6.55
2023-05-22T01:04:20.946Z,7.03
2023-05-22T01:06:49.492Z,6.47
2023-05-22T01:09:20.185Z,6.40
2023-05-22T01:12:12.855Z,7.07
2023-05-22T01:14:48.161Z,6.55
2023-05-22T01:17:24.686Z,6.70
2023-05-22T01:20:06.825Z,6.30
2023-05-22T01:23:09.189Z,6.70
2023-05-22T01:26:20.630Z,6.70
2023-05-22T01:29:15.792Z,6.47
2023-05-22T01:31:49.629Z,9.18
2023-05-22T01:34:20.028Z,6.78
2023-05-22T01:36:51.895Z,6.43
2023-05-22T01:39:21.181Z,7.32
2023-05-22T01:41:49.560Z,6.68
2023-05-22T01:44:17.791Z,6.45
2023-05-22T01:46:47.260Z,7.38
2023-05-22T01:49:15.365Z,6.93
2023-05-22T01:51:52.967Z,6.57
2023-05-22T01:54:28.882Z,6.78
2023-05-22T01:57:02.860Z,6.00
2023-05-22T01:59:34.333Z,7.45
2023-05-22T02:02:07.675Z,8.02
2023-05-22T02:04:43.437Z,6.20
2023-05-22T02:07:13.499Z,5.90
2023-05-22T02:09:44.290Z,7.82
2023-05-22T02:12:13.588Z,6.35
2023-05-22T02:14:43.475Z,5.63
2023-05-22T02:17:12.807Z,5.70
2023-05-22T02:19:40.981Z,5.32
2023-05-22T02:22:09.901Z,5.88
2023-05-22T02:24:38.281Z,6.55
2023-05-22T02:27:12.909Z,6.13
2023-05-22T02:29:41.292Z,6.50
2023-05-22T02:32:09.667Z,6.97
2023-05-22T02:34:39.151Z,6.38
2023-05-22T02:37:07.137Z,6.38
2023-05-22T02:39:35.243Z,7.03
2023-05-22T02:42:03.668Z,6.72
2023-05-22T02:44:31.772Z,7.68
2023-05-22T02:46:59.932Z,6.63
2023-05-22T02:49:28.583Z,6.53
2023-05-22T02:52:00.203Z,6.72
2023-05-22T02:54:28.254Z,6.22
2023-05-22T02:56:56.868Z,6.53
2023-05-22T02:59:25.062Z,6.28
2023-05-22T03:01:54.393Z,6.25
2023-05-22T03:04:23.004Z,5.82
2023-05-22T03:06:51.362Z,6.68
2023-05-22T03:09:21.522Z,5.60
2023-05-22T03:11:49.628Z,6.40
2023-05-22T03:14:17.681Z,6.35
2023-05-22T03:16:45.749Z,7.40
2023-05-22T03:19:16.377Z,5.10
2023-05-22T03:21:45.036Z,5.22
2023-05-22T03:24:14.727Z,6.70
2023-05-22T03:26:44.160Z,6.22
2023-05-22T03:29:12.302Z,5.95
2023-05-22T03:31:40.320Z,6.53
2023-05-22T03:34:08.489Z,6.18
2023-05-22T03:36:38.012Z,8.32
2023-05-22T03:39:06.420Z,6.03
2023-05-22T03:41:34.584Z,6.65
2023-05-22T03:44:04.470Z,6.13
2023-05-22T03:46:32.561Z,7.13
2023-05-22T03:49:02.664Z,6.05
2023-05-22T03:51:31.506Z,5.82
2023-05-22T03:53:59.518Z,7.00
2023-05-22T03:56:27.588Z,5.90
2023-05-22T03:58:56.149Z,5.85
2023-05-22T04:01:27.574Z,6.00
2023-05-22T04:03:55.631Z,6.22
2023-05-22T04:06:23.733Z,6.43
2023-05-22T04:08:52.100Z,6.15
2023-05-22T04:11:22.821Z,5.60
2023-05-22T04:13:52.116Z,6.45
2023-05-22T04:16:20.989Z,6.38
2023-05-22T04:18:50.561Z,6.40
2023-05-22T04:21:19.160Z,6.43
2023-05-22T04:23:47.621Z,7.15
2023-05-22T04:26:15.899Z,6.97
2023-05-22T04:28:46.368Z,7.15
2023-05-22T04:31:14.762Z,7.30
2023-05-22T04:33:42.829Z,6.22
2023-05-22T04:36:13.049Z,7.78
2023-05-22T04:38:41.430Z,7.47
2023-05-22T04:41:10.438Z,7.43
2023-05-22T04:43:39.879Z,7.00
2023-05-22T04:46:08.447Z,6.43
2023-05-22T04:48:37.092Z,6.43
2023-05-22T04:51:12.975Z,6.40
2023-05-22T04:53:41.019Z,6.47
2023-05-22T04:56:09.285Z,7.50
2023-05-22T04:58:38.271Z,7.30
2023-05-22T05:01:06.720Z,6.35
2023-05-22T05:03:35.498Z,6.88
2023-05-22T05:06:03.577Z,6.45
2023-05-22T05:08:33.222Z,6.43
2023-05-22T05:11:01.255Z,6.25
2023-05-22T05:13:29.284Z,7.38
2023-05-22T05:15:58.622Z,6.25
2023-05-22T05:18:28.122Z,7.03
2023-05-22T05:20:56.261Z,7.35
2023-05-22T05:23:24.283Z,5.63
2023-05-22T05:25:53.765Z,6.45
2023-05-22T05:28:21.805Z,6.82
2023-05-22T05:30:49.847Z,6.45
2023-05-22T05:33:21.725Z,6.53
2023-05-22T05:35:52.894Z,6.32
2023-05-22T05:38:21.133Z,6.57
2023-05-22T05:40:49.646Z,6.82
2023-05-22T05:43:20.155Z,7.75
2023-05-22T05:45:48.411Z,7.00
2023-05-22T05:48:16.635Z,6.47
2023-05-22T05:50:44.957Z,6.57
2023-05-22T05:53:13.005Z,6.32
2023-05-22T05:55:41.641Z,6.57
2023-05-22T05:58:10.268Z,5.47
2023-05-22T06:00:42.524Z,5.65
2023-05-22T06:03:11.085Z,6.55
2023-05-22T06:05:39.771Z,6.15
2023-05-22T06:08:08.652Z,5.80
2023-05-22T06:10:37.396Z,6.20
2023-05-22T06:13:05.643Z,7.03
2023-05-22T06:15:33.784Z,7.22
2023-05-22T06:18:03.861Z,6.72
2023-05-22T06:20:31.897Z,6.03
2023-05-22T06:23:00.322Z,6.60
2023-05-22T06:25:30.091Z,8.13
2023-05-22T06:27:58.118Z,6.28
2023-05-22T06:30:39.055Z,5.65
2023-05-22T06:33:14.611Z,11.23
2023-05-22T06:35:43.103Z,8.90
2023-05-22T06:38:11.097Z,6.65
2023-05-22T06:40:39.682Z,7.00
2023-05-22T06:43:07.821Z,6.18
2023-05-22T06:45:37.427Z,6.30
2023-05-22T06:48:06.303Z,6.15
2023-05-22T06:50:36.062Z,7.40
2023-05-22T06:53:04.105Z,5.97
2023-05-22T06:55:32.321Z,5.38
2023-05-22T06:58:01.004Z,5.93
2023-05-22T07:00:29.090Z,5.65
2023-05-22T07:02:57.501Z,5.43
2023-05-22T07:05:26.247Z,7.20
2023-05-22T07:07:55.674Z,6.38
2023-05-22T07:10:25.297Z,6.53
2023-05-22T07:12:53.277Z,5.65
2023-05-22T07:15:21.303Z,5.75
2023-05-22T07:17:49.645Z,7.10
2023-05-22T07:20:18.251Z,6.18
2023-05-22T07:22:46.252Z,6.43
2023-05-22T07:25:15.974Z,5.07
2023-05-22T07:27:44.056Z,5.63
2023-05-22T07:30:13.048Z,6.50
2023-05-22T07:32:41.197Z,7.00
2023-05-22T07:35:11.689Z,6.13
2023-05-22T07:37:39.710Z,7.00
2023-05-22T07:40:09.763Z,7.78
2023-05-22T07:42:39.568Z,7.63
2023-05-22T07:45:08.555Z,6.80
2023-05-22T07:47:36.767Z,7.60
2023-05-22T07:50:05.751Z,8.57
2023-05-22T07:52:33.825Z,8.52
2023-05-22T07:55:02.146Z,13.15
2023-05-22T07:57:30.654Z,7.32
2023-05-22T08:00:00.534Z,7.47
2023-05-22T08:02:28.627Z,8.07
2023-05-22T08:04:56.901Z,7.60
2023-05-22T08:07:25.091Z,7.82
2023-05-22T08:09:53.279Z,7.85
2023-05-22T08:12:21.418Z,8.65
2023-05-22T08:14:49.475Z,8.73
2023-05-22T08:17:19.429Z,8.05
2023-05-22T08:19:47.808Z,12.75
2023-05-22T08:22:15.982Z,9.27
2023-05-22T08:24:44.387Z,9.52
2023-05-22T08:27:12.363Z,10.00
2023-05-22T08:29:40.668Z,9.32
2023-05-22T08:32:09.319Z,8.60
2023-05-22T08:34:40.125Z,8.13
2023-05-22T08:37:09.695Z,9.93
2023-05-22T08:39:37.825Z,9.23
2023-05-22T08:42:07.274Z,8.85
2023-05-22T08:44:35.570Z,10.15
2023-05-22T08:47:05.476Z,8.90
2023-05-22T08:49:33.634Z,9.45
2023-05-22T08:52:07.221Z,7.90
2023-05-22T08:54:40.850Z,8.70
2023-05-22T08:57:09.518Z,10.02
2023-05-22T08:59:39.929Z,11.60
2023-05-22T09:02:09.900Z,10.35
2023-05-22T09:04:38.251Z,9.70
2023-05-22T09:07:09.086Z,10.15
2023-05-22T09:09:38.171Z,10.13
2023-05-22T09:12:09.090Z,9.82
2023-05-22T09:14:40.906Z,11.05
2023-05-22T09:17:11.362Z,10.20
2023-05-22T09:19:44.135Z,9.95
2023-05-22T09:22:14.050Z,9.27
2023-05-22T09:24:43.168Z,9.35
2023-05-22T09:27:12.207Z,10.70
2023-05-22T09:29:50.525Z,9.25
2023-05-22T09:32:18.857Z,11.27
2023-05-22T09:34:47.900Z,9.65
2023-05-22T09:37:18.139Z,9.07
2023-05-22T09:39:47.441Z,8.10
2023-05-22T09:42:17.985Z,9.43
2023-05-22T09:44:50.182Z,9.07
2023-05-22T09:47:18.318Z,8.18
2023-05-22T09:49:47.108Z,9.38
2023-05-22T09:52:15.837Z,8.95
2023-05-22T09:54:53.838Z,9.50
2023-05-22T09:57:23.033Z,9.55
2023-05-22T09:59:54.556Z,9.90
2023-05-22T10:02:24.056Z,10.00
2023-05-22T10:04:53.093Z,9.77
2023-05-22T10:07:24.202Z,10.10
2023-05-22T10:09:58.023Z,9.85
2023-05-22T10:12:29.807Z,10.20
2023-05-22T10:14:58.559Z,10.30
2023-05-22T10:17:27.233Z,10.77
2023-05-22T10:19:58.969Z,10.38
2023-05-22T10:22:30.430Z,10.55
2023-05-22T10:25:00.955Z,8.88
2023-05-22T10:27:29.150Z,9.30
2023-05-22T10:30:04.094Z,10.02
2023-05-22T10:32:40.165Z,10.02
2023-05-22T10:35:18.484Z,11.57
2023-05-22T10:37:51.191Z,9.63
2023-05-22T10:40:30.360Z,10.65
2023-05-22T10:43:00.336Z,10.90
2023-05-22T10:45:29.694Z,11.75
2023-05-22T10:48:08.450Z,11.38
2023-05-22T10:50:37.529Z,10.35
2023-05-22T10:53:24.604Z,12.18
2023-05-22T10:55:55.668Z,13.23
2023-05-22T10:58:28.484Z,10.63
2023-05-22T11:01:16.710Z,12.02
2023-05-22T11:03:56.022Z,10.30
2023-05-22T11:06:35.593Z,10.80
2023-05-22T11:09:27.950Z,10.35
2023-05-22T11:15:00.247Z,10.73
2023-05-22T11:17:29.697Z,11.00
2023-05-22T11:20:05.340Z,11.18
2023-05-22T11:22:35.617Z,22.60
2023-05-22T11:25:09.374Z,10.15
2023-05-22T11:27:39.114Z,10.82
2023-05-22T11:30:10.721Z,12.65
2023-05-22T11:32:39.622Z,10.23
2023-05-22T11:35:09.270Z,13.25
2023-05-22T11:37:41.026Z,11.88
2023-05-22T11:40:10.814Z,13.13
2023-05-22T11:42:39.221Z,11.80
2023-05-22T11:45:10.078Z,11.82
2023-05-22T11:47:38.701Z,12.73
2023-05-22T11:50:09.897Z,12.02
2023-05-22T11:52:39.587Z,12.55
2023-05-22T11:55:09.136Z,12.15
2023-05-22T11:57:38.253Z,11.82
2023-05-22T12:00:10.646Z,17.77
2023-05-22T12:02:39.061Z,14.18
2023-05-22T12:05:10.204Z,14.90
2023-05-22T12:07:38.664Z,13.55
2023-05-22T12:10:08.141Z,12.60
2023-05-22T12:12:36.310Z,11.68
2023-05-22T12:15:08.755Z,11.68
2023-05-22T12:17:38.769Z,12.05
2023-05-22T12:20:08.706Z,13.20
2023-05-22T12:22:42.939Z,10.88
2023-05-22T12:25:15.385Z,12.73
2023-05-22T12:27:44.805Z,11.60
2023-05-22T12:30:16.693Z,12.30
2023-05-22T12:32:49.897Z,11.38
2023-05-22T12:35:19.808Z,13.07
2023-05-22T12:37:51.325Z,11.80
2023-05-22T12:40:19.852Z,11.18
2023-05-22T12:42:49.406Z,12.70
2023-05-22T12:45:19.110Z,10.50
2023-05-22T12:47:47.343Z,10.13
2023-05-22T12:50:15.596Z,9.73
2023-05-22T12:52:44.112Z,11.00
2023-05-22T12:55:12.688Z,8.98
2023-05-22T12:57:40.777Z,10.43
2023-05-22T13:00:10.211Z,9.48
2023-05-22T13:02:39.751Z,9.55
2023-05-22T13:05:08.506Z,12.88
2023-05-22T13:07:36.964Z,8.80
2023-05-22T13:10:06.083Z,9.60
2023-05-22T13:12:34.280Z,9.52
2023-05-22T13:15:02.714Z,9.98
2023-05-22T13:17:32.947Z,8.57
2023-05-22T13:20:02.665Z,11.15
2023-05-22T13:22:30.753Z,10.02
2023-05-22T13:24:58.924Z,10.00
2023-05-22T13:27:27.471Z,9.18
2023-05-22T13:29:56.032Z,9.23
2023-05-22T13:32:24.166Z,9.30
2023-05-22T13:34:52.352Z,9.70
2023-05-22T13:37:22.196Z,10.15
2023-05-22T13:39:50.337Z,11.45
2023-05-22T13:42:18.484Z,9.75
2023-05-22T13:44:46.781Z,11.10
2023-05-22T13:47:14.966Z,9.18
2023-05-22T13:49:43.122Z,10.40
2023-05-22T13:52:11.503Z,11.98
2023-05-22T13:54:40.955Z,10.95
2023-05-22T13:57:09.024Z,10.90
2023-05-22T13:59:37.115Z,12.05
2023-05-22T14:02:05.714Z,13.13
2023-05-22T14:04:34.118Z,11.20
2023-05-22T14:07:02.390Z,11.55
2023-05-22T14:09:31.391Z,12.15
2023-05-22T14:12:00.888Z,11.70
2023-05-22T14:14:28.985Z,12.52
2023-05-22T14:16:57.056Z,11.93
2023-05-22T14:19:25.669Z,12.57
2023-05-22T14:21:53.990Z,12.23
2023-05-22T14:24:22.276Z,14.25
2023-05-22T14:26:51.169Z,12.35
2023-05-22T14:29:21.046Z,12.55
2023-05-22T14:31:51.959Z,11.70
2023-05-22T14:34:20.346Z,11.88
2023-05-22T14:36:48.878Z,13.57
2023-05-22T14:39:16.952Z,13.15
2023-05-22T14:41:44.975Z,14.02
2023-05-22T14:44:13.294Z,15.07
2023-05-22T14:46:42.830Z,12.55
2023-05-22T14:49:10.998Z,14.07
2023-05-22T14:51:39.209Z,13.85
2023-05-22T14:54:08.012Z,13.98
2023-05-22T14:56:36.016Z,13.13
2023-05-22T14:59:04.067Z,14.20
2023-05-22T15:01:32.681Z,13.02
2023-05-22T15:04:02.624Z,15.52
2023-05-22T15:06:31.060Z,14.77
2023-05-22T15:08:59.145Z,14.57
2023-05-22T15:11:27.634Z,15.63
2023-05-22T15:13:56.202Z,15.38
2023-05-22T15:16:26.012Z,14.35
2023-05-22T15:18:54.972Z,12.85
2023-05-22T15:21:25.763Z,14.35
2023-05-22T15:23:53.793Z,14.23
2023-05-22T15:26:23.040Z,14.02
2023-05-22T15:28:51.278Z,13.52
2023-05-22T15:31:19.876Z,13.05
2023-05-22T15:33:48.025Z,14.63
2023-05-22T15:36:16.126Z,14.50
2023-05-22T15:38:45.559Z,14.93
2023-05-22T15:41:14.265Z,14.50
2023-05-22T15:43:42.720Z,14.50
2023-05-22T15:46:12.365Z,11.52
2023-05-22T15:48:40.506Z,12.63
2023-05-22T15:51:09.967Z,12.82
2023-05-22T15:53:38.087Z,11.88
2023-05-22T15:56:08.447Z,13.70
2023-05-22T15:58:36.654Z,12.32
2023-05-22T16:01:04.862Z,13.57
2023-05-22T16:03:33.170Z,12.40
2023-05-22T16:06:01.413Z,12.70
2023-05-22T16:08:29.425Z,12.82
2023-05-22T16:11:00.602Z,14.10
2023-05-22T16:13:30.432Z,12.15
2023-05-22T16:15:58.597Z,12.27
2023-05-22T16:18:26.778Z,11.65
2023-05-22T16:20:57.211Z,13.77
2023-05-22T16:23:25.259Z,11.50
2023-05-22T16:25:53.268Z,12.05
2023-05-22T16:28:21.797Z,11.82
2023-05-22T16:30:51.343Z,11.00
2023-05-22T16:33:19.859Z,9.77
2023-05-22T16:35:48.083Z,10.55
2023-05-22T16:38:16.216Z,12.30
2023-05-22T16:40:44.369Z,11.25
2023-05-22T16:43:13.840Z,10.20
2023-05-22T16:46:01.749Z,12.15
2023-05-22T16:48:34.318Z,11.20
2023-05-22T16:51:26.554Z,11.05
2023-05-22T16:54:00.660Z,9.63
2023-05-22T16:56:28.814Z,11.20
2023-05-22T16:58:56.871Z,10.88
2023-05-22T17:01:27.404Z,10.48
2023-05-22T17:03:56.135Z,9.73
2023-05-22T17:06:24.393Z,10.73
2023-05-22T17:08:52.816Z,10.77
2023-05-22T17:11:21.101Z,10.70
2023-05-22T17:13:49.299Z,11.02
2023-05-22T17:16:17.726Z,10.90
2023-05-22T17:18:47.514Z,10.68
2023-05-22T17:21:17.433Z,10.90
2023-05-22T17:23:45.756Z,10.70
2023-05-22T17:26:14.349Z,9.80
2023-05-22T17:28:42.695Z,9.70
2023-05-22T17:31:10.888Z,10.60
2023-05-22T17:33:39.090Z,9.50
2023-05-22T17:36:08.779Z,9.90
2023-05-22T17:38:37.068Z,11.70
2023-05-22T17:41:05.190Z,9.90
2023-05-22T17:43:35.346Z,10.15
2023-05-22T17:46:03.898Z,10.60
2023-05-22T17:48:32.113Z,10.02
2023-05-22T17:51:00.573Z,9.75
2023-05-22T17:53:34.004Z,10.38
2023-05-22T17:56:02.826Z,14.70
2023-05-22T17:58:30.913Z,8.88
2023-05-22T18:00:59.175Z,9.40
2023-05-22T18:03:27.530Z,8.88
2023-05-22T18:05:55.983Z,8.77
2023-05-22T18:08:24.014Z,8.63
2023-05-22T18:10:55.758Z,9.63
2023-05-22T18:13:23.863Z,9.98
2023-05-22T18:15:52.296Z,10.75
2023-05-22T18:18:22.392Z,14.80
2023-05-22T18:20:52.759Z,10.95
2023-05-22T18:23:21.162Z,8.38
2023-05-22T18:25:49.438Z,8.93
2023-05-22T18:28:19.950Z,10.40
2023-05-22T18:30:49.491Z,9.52
2023-05-22T18:33:17.854Z,10.38
2023-05-22T18:35:45.865Z,10.02
2023-05-22T18:38:14.150Z,9.60
2023-05-22T18:40:42.454Z,9.57
2023-05-22T18:43:10.768Z,8.70
2023-05-22T18:45:40.531Z,10.57
2023-05-22T18:48:08.592Z,8.07
2023-05-22T18:50:36.979Z,10.80
2023-05-22T18:53:07.151Z,10.20
2023-05-22T18:55:35.407Z,10.13
2023-05-22T18:58:03.820Z,9.65
2023-05-22T19:00:32.000Z,9.52
2023-05-22T19:03:02.259Z,8.98
2023-05-22T19:05:30.657Z,8.38
2023-05-22T19:07:58.865Z,8.88
2023-05-22T19:10:26.971Z,10.13
2023-05-22T19:12:55.080Z,12.05
2023-05-22T19:15:23.186Z,10.18
2023-05-22T19:17:51.552Z,11.95
2023-05-22T19:20:21.165Z,10.27
2023-05-22T19:22:50.859Z,10.68
2023-05-22T19:25:19.000Z,10.57
2023-05-22T19:27:47.536Z,11.40
2023-05-22T19:30:16.593Z,10.48
2023-05-22T19:32:44.649Z,10.13
2023-05-22T19:35:12.923Z,10.77
2023-05-22T19:37:42.497Z,11.68
2023-05-22T19:40:11.375Z,10.75
2023-05-22T19:42:39.933Z,11.88
2023-05-22T19:45:09.479Z,11.80
2023-05-22T19:47:37.921Z,11.00
2023-05-22T19:50:08.286Z,10.88
2023-05-22T19:52:36.411Z,13.80
2023-05-22T19:55:07.031Z,12.88
2023-05-22T19:57:35.127Z,11.13
2023-05-22T20:00:07.520Z,12.95
2023-05-22T20:02:35.673Z,12.68
2023-05-22T20:05:04.371Z,14.00
2023-05-22T20:07:34.240Z,12.85
2023-05-22T20:10:02.249Z,14.38
2023-05-22T20:12:31.974Z,12.32
2023-05-22T20:15:00.196Z,12.27
2023-05-22T20:17:28.505Z,13.30
2023-05-22T20:19:57.552Z,11.40
2023-05-22T20:22:25.766Z,11.15
2023-05-22T20:24:54.027Z,12.23
2023-05-22T20:27:22.117Z,12.35
2023-05-22T20:29:51.646Z,13.45
2023-05-22T20:32:19.687Z,11.52
2023-05-22T20:34:47.780Z,12.85
2023-05-22T20:37:15.845Z,11.07
2023-05-22T20:39:44.260Z,12.80
2023-05-22T20:42:16.972Z,10.88
2023-05-22T20:44:46.263Z,12.10
2023-05-22T20:47:15.613Z,12.98
2023-05-22T20:49:43.667Z,11.55
2023-05-22T20:52:13.574Z,11.57
2023-05-22T20:54:41.980Z,11.38
2023-05-22T20:57:09.978Z,10.23
2023-05-22T20:59:38.410Z,12.82
2023-05-22T21:02:07.311Z,13.38
2023-05-22T21:04:36.775Z,12.23
2023-05-22T21:07:04.978Z,12.60
2023-05-22T21:09:33.157Z,14.05
2023-05-22T21:12:01.416Z,16.73
2023-05-22T21:14:29.603Z,13.18
2023-05-22T21:16:57.721Z,13.05
2023-05-22T21:19:25.816Z,16.27
2023-05-22T21:21:55.242Z,13.40
2023-05-22T21:24:23.276Z,12.95
2023-05-22T21:26:51.467Z,12.48
2023-05-22T21:29:19.475Z,16.92
2023-05-22T21:31:47.512Z,12.48
2023-05-22T21:34:15.597Z,14.10
2023-05-22T21:36:43.711Z,16.15
2023-05-22T21:39:13.306Z,16.75
2023-05-22T21:41:41.375Z,17.75
2023-05-22T21:44:10.070Z,15.70
2023-05-22T21:46:38.228Z,16.48
2023-05-22T21:49:07.433Z,15.15
2023-05-22T21:51:35.636Z,19.65
2023-05-22T21:54:03.644Z,13.00
2023-05-22T21:56:33.012Z,13.18
2023-05-22T21:59:01.147Z,11.20
2023-05-22T22:01:29.266Z,11.50
2023-05-22T22:03:57.502Z,10.02
2023-05-22T22:06:25.699Z,10.48
2023-05-22T22:08:54.049Z,10.70
2023-05-22T22:11:22.563Z,9.98
2023-05-22T22:13:52.335Z,10.35
2023-05-22T22:16:22.084Z,9.10
2023-05-22T22:18:51.154Z,11.30
2023-05-22T22:21:19.286Z,10.55
2023-05-22T22:23:47.269Z,10.10
2023-05-22T22:26:15.324Z,10.40
2023-05-22T22:28:43.332Z,10.15
2023-05-22T22:31:12.679Z,10.80
2023-05-22T22:33:40.635Z,10.07
2023-05-22T22:36:09.085Z,10.00
2023-05-22T22:38:38.431Z,15.70
2023-05-22T22:41:08.738Z,10.60
2023-05-22T22:43:36.930Z,11.40
2023-05-22T22:46:04.977Z,10.10
2023-05-22T22:48:34.457Z,12.65
2023-05-22T22:51:02.593Z,10.20
2023-05-22T22:53:31.203Z,10.95
2023-05-22T22:55:59.368Z,11.65
2023-05-22T22:58:27.448Z,17.88
2023-05-22T23:00:55.573Z,11.43
2023-05-22T23:03:23.769Z,10.57
2023-05-22T23:05:53.213Z,11.55
2023-05-22T23:08:21.198Z,11.15
2023-05-22T23:10:49.199Z,10.88
2023-05-22T23:13:17.616Z,10.98
2023-05-22T23:15:45.786Z,10.77
2023-05-22T23:18:14.214Z,11.93
2023-05-22T23:20:42.271Z,11.07
2023-05-22T23:23:11.682Z,11.68
2023-05-22T23:25:40.102Z,10.57
2023-05-22T23:28:08.464Z,11.10
2023-05-22T23:30:36.436Z,9.60
2023-05-22T23:33:06.131Z,8.10
2023-05-22T23:35:34.135Z,8.35
2023-05-22T23:38:02.154Z,6.63
2023-05-22T23:40:31.895Z,6.25
2023-05-22T23:42:59.932Z,6.22
2023-05-22T23:45:28.057Z,6.07
2023-05-22T23:47:56.313Z,5.53
2023-05-22T23:50:24.907Z,4.97
2023-05-22T23:52:53.212Z,4.90
2023-05-22T23:55:21.584Z,5.50
2023-05-22T23:57:51.040Z,5.20
